sensor_id;sensor_type;location;lat;lon;timestamp;pressure;altitude;pressure_sealevel;temperature;humidity
51313;BME280;37397;53.226;10.400;2023-05-15T00:01:58;100904.22;;;18.30;46.22
51313;BME280;37397;53.226;10.400;2023-05-15T00:04:25;100900.81;;;18.26;46.46
51313;BME280;37397;53.226;10.400;2023-05-15T00:06:52;100899.25;;;18.25;46.28
51313;BME280;37397;53.226;10.400;2023-05-15T00:09:18;100895.84;;;18.20;46.49
51313;BME280;37397;53.226;10.400;2023-05-15T00:11:45;100899.53;;;18.21;46.47
51313;BME280;37397;53.226;10.400;2023-05-15T00:14:11;100895.59;;;18.18;46.36
51313;BME280;37397;53.226;10.400;2023-05-15T00:16:38;100893.25;;;18.17;46.57
51313;BME280;37397;53.226;10.400;2023-05-15T00:19:05;100893.78;;;18.15;46.26
51313;BME280;37397;53.226;10.400;2023-05-15T00:21:31;100889.06;;;18.12;46.64
51313;BME280;37397;53.226;10.400;2023-05-15T00:23:58;100884.63;;;18.11;46.39
51313;BME280;37397;53.226;10.400;2023-05-15T00:26:24;100883.06;;;18.10;46.72
51313;BME280;37397;53.226;10.400;2023-05-15T00:28:51;100878.34;;;18.07;46.65
51313;BME280;37397;53.226;10.400;2023-05-15T00:31:17;100875.22;;;18.05;46.57
51313;BME280;37397;53.226;10.400;2023-05-15T00:33:44;100874.69;;;18.01;46.68
51313;BME280;37397;53.226;10.400;2023-05-15T00:36:11;100877.81;;;18.03;46.89
51313;BME280;37397;53.226;10.400;2023-05-15T00:38:37;100872.59;;;18.01;46.54
51313;BME280;37397;53.226;10.400;2023-05-15T00:41:05;100871.56;;;17.99;46.60
51313;BME280;37397;53.226;10.400;2023-05-15T00:43:32;100866.06;;;17.95;46.72
51313;BME280;37397;53.226;10.400;2023-05-15T00:46:01;100864.75;;;17.96;46.92
51313;BME280;37397;53.226;10.400;2023-05-15T00:48:28;100868.16;;;17.95;46.91
51313;BME280;37397;53.226;10.400;2023-05-15T00:50:56;100865.03;;;17.93;46.97
51313;BME280;37397;53.226;10.400;2023-05-15T00:53:23;100864.78;;;17.91;47.07
51313;BME280;37397;53.226;10.400;2023-05-15T00:55:50;100860.06;;;17.88;47.16
51313;BME280;37397;53.226;10.400;2023-05-15T00:58:20;100861.34;;;17.86;47.12
51313;BME280;37397;53.226;10.400;2023-05-15T01:00:49;100857.44;;;17.84;47.14
51313;BME280;37397;53.226;10.400;2023-05-15T01:03:16;100865.31;;;17.83;47.07
51313;BME280;37397;53.226;10.400;2023-05-15T01:05:43;100857.97;;;17.82;47.20
51313;BME280;37397;53.226;10.400;2023-05-15T01:08:25;100857.47;;;17.78;47.16
51313;BME280;37397;53.226;10.400;2023-05-15T01:10:52;100851.69;;;17.78;47.00
51313;BME280;37397;53.226;10.400;2023-05-15T01:13:20;100845.13;;;17.78;47.30
51313;BME280;37397;53.226;10.400;2023-05-15T01:15:48;100852.75;;;17.75;47.14
51313;BME280;37397;53.226;10.400;2023-05-15T01:18:15;100840.44;;;17.75;47.28
51313;BME280;37397;53.226;10.400;2023-05-15T01:26:15;100850.69;;;17.70;47.20
51313;BME280;37397;53.226;10.400;2023-05-15T01:31:56;100841.25;;;17.64;47.39
51313;BME280;37397;53.226;10.400;2023-05-15T01:34:31;100844.66;;;17.62;47.49
51313;BME280;37397;53.226;10.400;2023-05-15T01:37:02;100845.47;;;17.63;47.51
51313;BME280;37397;53.226;10.400;2023-05-15T01:39:31;100845.19;;;17.61;47.49
51313;BME280;37397;53.226;10.400;2023-05-15T01:42:06;100837.59;;;17.58;47.73
51313;BME280;37397;53.226;10.400;2023-05-15T01:44:35;100834.47;;;17.56;47.64
51313;BME280;37397;53.226;10.400;2023-05-15T01:47:12;100831.34;;;17.54;47.56
51313;BME280;37397;53.226;10.400;2023-05-15T01:49:42;100837.09;;;17.54;47.52
51313;BME280;37397;53.226;10.400;2023-05-15T01:52:16;100831.88;;;17.52;47.88
51313;BME280;37397;53.226;10.400;2023-05-15T01:54:45;100822.69;;;17.48;47.97
51313;BME280;37397;53.226;10.400;2023-05-15T01:57:12;100824.03;;;17.47;48.02
51313;BME280;37397;53.226;10.400;2023-05-15T01:59:40;100826.38;;;17.48;48.14
51313;BME280;37397;53.226;10.400;2023-05-15T02:02:08;100825.34;;;17.46;48.17
51313;BME280;37397;53.226;10.400;2023-05-15T02:04:37;100824.03;;;17.41;48.09
51313;BME280;37397;53.226;10.400;2023-05-15T02:07:04;100825.63;;;17.42;48.10
51313;BME280;37397;53.226;10.400;2023-05-15T02:09:33;100819.03;;;17.42;48.02
51313;BME280;37397;53.226;10.400;2023-05-15T02:12:01;100816.69;;;17.40;47.94
51313;BME280;37397;53.226;10.400;2023-05-15T02:14:28;100810.41;;;17.36;48.20
51313;BME280;37397;53.226;10.400;2023-05-15T02:16:55;100814.59;;;17.35;48.22
51313;BME280;37397;53.226;10.400;2023-05-15T02:19:21;100809.91;;;17.32;48.25
51313;BME280;37397;53.226;10.400;2023-05-15T02:21:48;100806.78;;;17.30;48.14
51313;BME280;37397;53.226;10.400;2023-05-15T02:24:14;100803.09;;;17.29;48.29
51313;BME280;37397;53.226;10.400;2023-05-15T02:32:02;100816.75;;;17.23;48.30
51313;BME280;37397;53.226;10.400;2023-05-15T02:37:34;100808.09;;;17.18;48.39
51313;BME280;37397;53.226;10.400;2023-05-15T02:40:04;100806.28;;;17.14;48.50
51313;BME280;37397;53.226;10.400;2023-05-15T02:42:33;100798.72;;;17.11;48.40
51313;BME280;37397;53.226;10.400;2023-05-15T02:45:01;100796.34;;;17.10;48.52
51313;BME280;37397;53.226;10.400;2023-05-15T02:47:28;100794.00;;;17.08;48.30
51313;BME280;37397;53.226;10.400;2023-05-15T02:49:56;100806.59;;;17.05;48.68
51313;BME280;37397;53.226;10.400;2023-05-15T02:52:23;100801.34;;;17.04;48.82
51313;BME280;37397;53.226;10.400;2023-05-15T02:54:50;100794.53;;;17.01;48.57
51313;BME280;37397;53.226;10.400;2023-05-15T02:57:16;100797.69;;;16.98;48.65
51313;BME280;37397;53.226;10.400;2023-05-15T02:59:43;100786.44;;;16.94;48.62
51313;BME280;37397;53.226;10.400;2023-05-15T03:02:09;100787.50;;;16.91;48.83
51313;BME280;37397;53.226;10.400;2023-05-15T03:04:36;100787.50;;;16.91;48.90
51313;BME280;37397;53.226;10.400;2023-05-15T03:07:03;100784.06;;;16.87;48.94
51313;BME280;37397;53.226;10.400;2023-05-15T03:09:29;100782.22;;;16.84;48.87
51313;BME280;37397;53.226;10.400;2023-05-15T03:11:56;100775.44;;;16.81;48.93
51313;BME280;37397;53.226;10.400;2023-05-15T03:14:22;100775.94;;;16.80;48.95
51313;BME280;37397;53.226;10.400;2023-05-15T03:16:49;100780.13;;;16.78;49.08
51313;BME280;37397;53.226;10.400;2023-05-15T03:19:15;100773.06;;;16.74;49.14
51313;BME280;37397;53.226;10.400;2023-05-15T03:21:42;100774.66;;;16.75;49.10
51313;BME280;37397;53.226;10.400;2023-05-15T03:24:08;100774.94;;;16.71;48.98
51313;BME280;37397;53.226;10.400;2023-05-15T03:26:35;100768.63;;;16.67;49.09
51313;BME280;37397;53.226;10.400;2023-05-15T03:29:01;100776.25;;;16.65;49.16
51313;BME280;37397;53.226;10.400;2023-05-15T03:31:28;100764.97;;;16.61;49.29
51313;BME280;37397;53.226;10.400;2023-05-15T03:33:55;100776.25;;;16.59;49.33
51313;BME280;37397;53.226;10.400;2023-05-15T03:36:21;100770.22;;;16.57;49.35
51313;BME280;37397;53.226;10.400;2023-05-15T03:38:48;100767.06;;;16.55;49.21
51313;BME280;37397;53.226;10.400;2023-05-15T03:41:14;100759.22;;;16.50;49.36
51313;BME280;37397;53.226;10.400;2023-05-15T03:43:41;100772.31;;;16.51;49.33
51313;BME280;37397;53.226;10.400;2023-05-15T03:46:07;100774.94;;;16.49;49.55
51313;BME280;37397;53.226;10.400;2023-05-15T03:48:34;100766.56;;;16.45;49.56
51313;BME280;37397;53.226;10.400;2023-05-15T03:51:04;100768.41;;;16.43;49.60
51313;BME280;37397;53.226;10.400;2023-05-15T03:53:31;100765.00;;;16.38;49.52
51313;BME280;37397;53.226;10.400;2023-05-15T03:55:57;100759.22;;;16.38;49.59
51313;BME280;37397;53.226;10.400;2023-05-15T03:58:24;100768.91;;;16.35;49.71
51313;BME280;37397;53.226;10.400;2023-05-15T04:00:51;100758.97;;;16.31;49.77
51313;BME280;37397;53.226;10.400;2023-05-15T04:03:18;100760.53;;;16.32;49.74
51313;BME280;37397;53.226;10.400;2023-05-15T04:05:45;100763.94;;;16.30;49.79
51313;BME280;37397;53.226;10.400;2023-05-15T04:08:15;100757.69;;;16.26;49.86
51313;BME280;37397;53.226;10.400;2023-05-15T04:10:41;100759.50;;;16.23;49.89
51313;BME280;37397;53.226;10.400;2023-05-15T04:13:08;100755.56;;;16.21;50.04
51313;BME280;37397;53.226;10.400;2023-05-15T04:15:34;100754.78;;;16.20;50.05
51313;BME280;37397;53.226;10.400;2023-05-15T04:18:01;100756.59;;;16.18;50.03
51313;BME280;37397;53.226;10.400;2023-05-15T04:20:27;100751.66;;;16.18;50.10
51313;BME280;37397;53.226;10.400;2023-05-15T04:22:54;100750.84;;;16.12;50.08
51313;BME280;37397;53.226;10.400;2023-05-15T04:25:20;100750.34;;;16.14;49.97
51313;BME280;37397;53.226;10.400;2023-05-15T04:27:47;100760.28;;;16.13;50.12
51313;BME280;37397;53.226;10.400;2023-05-15T04:30:14;100758.72;;;16.12;50.03
51313;BME280;37397;53.226;10.400;2023-05-15T04:32:41;100751.13;;;16.09;50.33
51313;BME280;37397;53.226;10.400;2023-05-15T04:35:09;100759.75;;;16.09;50.13
51313;BME280;37397;53.226;10.400;2023-05-15T04:37:38;100751.66;;;16.07;50.27
51313;BME280;37397;53.226;10.400;2023-05-15T04:40:05;100747.72;;;16.04;50.31
51313;BME280;37397;53.226;10.400;2023-05-15T04:42:34;100741.44;;;16.00;50.61
51313;BME280;37397;53.226;10.400;2023-05-15T04:45:01;100746.94;;;16.04;50.26
51313;BME280;37397;53.226;10.400;2023-05-15T04:47:28;100752.44;;;16.02;50.30
51313;BME280;37397;53.226;10.400;2023-05-15T04:49:54;100742.22;;;16.01;50.25
51313;BME280;37397;53.226;10.400;2023-05-15T04:52:21;100742.75;;;15.99;50.32
51313;BME280;37397;53.226;10.400;2023-05-15T04:54:47;100739.59;;;15.97;50.36
51313;BME280;37397;53.226;10.400;2023-05-15T04:57:16;100741.44;;;16.00;50.46
51313;BME280;37397;53.226;10.400;2023-05-15T04:59:42;100739.59;;;15.97;50.56
51313;BME280;37397;53.226;10.400;2023-05-15T05:02:09;100748.50;;;15.99;50.63
51313;BME280;37397;53.226;10.400;2023-05-15T05:04:36;100744.03;;;15.98;50.64
51313;BME280;37397;53.226;10.400;2023-05-15T05:07:02;100736.97;;;15.94;50.62
51313;BME280;37397;53.226;10.400;2023-05-15T05:09:31;100739.09;;;15.99;50.57
51313;BME280;37397;53.226;10.400;2023-05-15T05:12:00;100737.75;;;16.00;50.48
51313;BME280;37397;53.226;10.400;2023-05-15T05:14:29;100728.34;;;15.99;50.83
51313;BME280;37397;53.226;10.400;2023-05-15T05:16:56;100738.28;;;15.98;50.74
51313;BME280;37397;53.226;10.400;2023-05-15T05:19:23;100735.69;;;16.00;50.77
51313;BME280;37397;53.226;10.400;2023-05-15T05:21:49;100735.16;;;16.02;50.94
51313;BME280;37397;53.226;10.400;2023-05-15T05:24:16;100729.94;;;16.00;50.89
51313;BME280;37397;53.226;10.400;2023-05-15T05:26:43;100734.66;;;16.03;51.00
51313;BME280;37397;53.226;10.400;2023-05-15T05:29:10;100727.31;;;16.02;50.82
51313;BME280;37397;53.226;10.400;2023-05-15T05:31:36;100728.88;;;16.03;50.84
51313;BME280;37397;53.226;10.400;2023-05-15T05:34:03;100727.03;;;16.06;51.18
51313;BME280;37397;53.226;10.400;2023-05-15T05:36:29;100730.97;;;16.09;50.76
51313;BME280;37397;53.226;10.400;2023-05-15T05:38:56;100730.69;;;16.07;50.88
51313;BME280;37397;53.226;10.400;2023-05-15T05:41:22;100721.00;;;16.10;50.99
51313;BME280;37397;53.226;10.400;2023-05-15T05:43:49;100723.88;;;16.10;51.11
51313;BME280;37397;53.226;10.400;2023-05-15T05:46:15;100717.09;;;16.13;51.01
51313;BME280;37397;53.226;10.400;2023-05-15T05:48:41;100726.25;;;16.17;51.25
51313;BME280;37397;53.226;10.400;2023-05-15T05:51:08;100724.41;;;16.19;51.34
51313;BME280;37397;53.226;10.400;2023-05-15T05:53:34;100733.34;;;16.21;51.47
51313;BME280;37397;53.226;10.400;2023-05-15T05:56:03;100728.34;;;16.22;51.65
51313;BME280;37397;53.226;10.400;2023-05-15T05:58:30;100731.47;;;16.24;51.69
51313;BME280;37397;53.226;10.400;2023-05-15T06:00:56;100727.31;;;16.25;51.52
51313;BME280;37397;53.226;10.400;2023-05-15T06:03:23;100730.69;;;16.29;51.43
51313;BME280;37397;53.226;10.400;2023-05-15T06:05:50;100717.88;;;16.30;51.78
51313;BME280;37397;53.226;10.400;2023-05-15T06:08:16;100726.00;;;16.32;51.89
51313;BME280;37397;53.226;10.400;2023-05-15T06:10:43;100719.44;;;16.31;51.84
51313;BME280;37397;53.226;10.400;2023-05-15T06:13:10;100724.16;;;16.34;51.62
51313;BME280;37397;53.226;10.400;2023-05-15T06:15:37;100714.19;;;16.35;51.79
51313;BME280;37397;53.226;10.400;2023-05-15T06:18:04;100723.88;;;16.38;51.87
51313;BME280;37397;53.226;10.400;2023-05-15T06:20:31;100714.72;;;16.39;52.04
51313;BME280;37397;53.226;10.400;2023-05-15T06:22:57;100715.50;;;16.40;52.01
51313;BME280;37397;53.226;10.400;2023-05-15T06:25:24;100713.94;;;16.39;52.14
51313;BME280;37397;53.226;10.400;2023-05-15T06:27:51;100716.03;;;16.44;52.20
51313;BME280;37397;53.226;10.400;2023-05-15T06:30:17;100719.16;;;16.46;51.93
51313;BME280;37397;53.226;10.400;2023-05-15T06:32:44;100715.75;;;16.48;51.82
51313;BME280;37397;53.226;10.400;2023-05-15T06:35:11;100713.13;;;16.50;52.23
51313;BME280;37397;53.226;10.400;2023-05-15T06:37:37;100717.59;;;16.51;52.26
51313;BME280;37397;53.226;10.400;2023-05-15T06:40:04;100719.41;;;16.54;52.50
51313;BME280;37397;53.226;10.400;2023-05-15T06:42:31;100701.59;;;16.50;52.31
51313;BME280;37397;53.226;10.400;2023-05-15T06:44:59;100705.50;;;16.58;52.43
51313;BME280;37397;53.226;10.400;2023-05-15T06:47:25;100710.75;;;16.59;52.33
51313;BME280;37397;53.226;10.400;2023-05-15T06:49:53;100700.28;;;16.62;52.46
51313;BME280;37397;53.226;10.400;2023-05-15T06:52:20;100697.41;;;16.62;52.15
51313;BME280;37397;53.226;10.400;2023-05-15T06:54:46;100699.47;;;16.67;52.00
51313;BME280;37397;53.226;10.400;2023-05-15T06:57:14;100699.72;;;16.69;52.05
51313;BME280;37397;53.226;10.400;2023-05-15T06:59:40;100694.50;;;16.73;52.07
51313;BME280;37397;53.226;10.400;2023-05-15T07:02:06;100700.50;;;16.75;51.91
51313;BME280;37397;53.226;10.400;2023-05-15T07:04:33;100703.63;;;16.77;51.85
51313;BME280;37397;53.226;10.400;2023-05-15T07:07:00;100697.34;;;16.79;51.99
51313;BME280;37397;53.226;10.400;2023-05-15T07:09:26;100697.09;;;16.83;51.73
51313;BME280;37397;53.226;10.400;2023-05-15T07:11:53;100697.34;;;16.85;51.69
51313;BME280;37397;53.226;10.400;2023-05-15T07:14:19;100693.44;;;16.88;51.63
51313;BME280;37397;53.226;10.400;2023-05-15T07:16:45;100692.91;;;16.89;51.44
51313;BME280;37397;53.226;10.400;2023-05-15T07:19:12;100688.16;;;16.92;51.27
51313;BME280;37397;53.226;10.400;2023-05-15T07:21:39;100677.91;;;16.97;51.35
51313;BME280;37397;53.226;10.400;2023-05-15T07:24:06;100675.31;;;16.99;51.33
51313;BME280;37397;53.226;10.400;2023-05-15T07:26:32;100664.78;;;17.01;51.38
51313;BME280;37397;53.226;10.400;2023-05-15T07:29:15;100668.72;;;17.04;51.29
51313;BME280;37397;53.226;10.400;2023-05-15T07:31:42;100669.75;;;17.06;51.24
51313;BME280;37397;53.226;10.400;2023-05-15T07:34:10;100666.59;;;17.10;51.17
51313;BME280;37397;53.226;10.400;2023-05-15T07:36:37;100665.53;;;17.13;51.05
51313;BME280;37397;53.226;10.400;2023-05-15T07:39:03;100666.56;;;17.16;51.10
51313;BME280;37397;53.226;10.400;2023-05-15T07:41:29;100664.19;;;17.20;51.25
51313;BME280;37397;53.226;10.400;2023-05-15T07:43:58;100669.69;;;17.23;51.10
51313;BME280;37397;53.226;10.400;2023-05-15T07:46:25;100667.03;;;17.25;50.94
51313;BME280;37397;53.226;10.400;2023-05-15T07:48:52;100663.88;;;17.29;50.84
51313;BME280;37397;53.226;10.400;2023-05-15T07:51:18;100667.78;;;17.31;50.68
51313;BME280;37397;53.226;10.400;2023-05-15T07:53:45;100660.72;;;17.33;50.21
51313;BME280;37397;53.226;10.400;2023-05-15T07:56:11;100658.31;;;17.37;50.09
51313;BME280;37397;53.226;10.400;2023-05-15T07:58:37;100652.00;;;17.38;49.86
51313;BME280;37397;53.226;10.400;2023-05-15T08:01:05;100656.72;;;17.41;49.83
51313;BME280;37397;53.226;10.400;2023-05-15T08:03:32;100651.19;;;17.43;48.93
51313;BME280;37397;53.226;10.400;2023-05-15T08:05:59;100653.00;;;17.46;48.72
51313;BME280;37397;53.226;10.400;2023-05-15T08:08:26;100652.75;;;17.50;48.43
51313;BME280;37397;53.226;10.400;2023-05-15T08:10:52;100645.88;;;17.53;48.52
51313;BME280;37397;53.226;10.400;2023-05-15T08:13:18;100641.69;;;17.54;48.60
51313;BME280;37397;53.226;10.400;2023-05-15T08:15:45;100639.03;;;17.56;48.78
51313;BME280;37397;53.226;10.400;2023-05-15T08:18:11;100645.63;;;17.57;47.84
51313;BME280;37397;53.226;10.400;2023-05-15T08:20:38;100647.44;;;17.60;47.19
51313;BME280;37397;53.226;10.400;2023-05-15T08:23:04;100631.94;;;17.63;47.32
51313;BME280;37397;53.226;10.400;2023-05-15T08:25:31;100638.19;;;17.67;47.39
51313;BME280;37397;53.226;10.400;2023-05-15T08:27:58;100637.09;;;17.70;47.47
51313;BME280;37397;53.226;10.400;2023-05-15T08:30:24;100631.34;;;17.70;47.74
51313;BME280;37397;53.226;10.400;2023-05-15T08:32:51;100630.25;;;17.73;47.51
51313;BME280;37397;53.226;10.400;2023-05-15T08:35:17;100629.19;;;17.76;47.78
51313;BME280;37397;53.226;10.400;2023-05-15T08:37:44;100630.19;;;17.79;47.66
51313;BME280;37397;53.226;10.400;2023-05-15T08:40:11;100627.09;;;17.77;46.92
51313;BME280;37397;53.226;10.400;2023-05-15T08:42:49;100631.25;;;17.81;46.60
51313;BME280;37397;53.226;10.400;2023-05-15T08:45:19;100635.94;;;17.84;46.16
51313;BME280;37397;53.226;10.400;2023-05-15T08:47:45;100630.66;;;17.89;45.97
51313;BME280;37397;53.226;10.400;2023-05-15T08:50:13;100628.06;;;17.91;46.35
51313;BME280;37397;53.226;10.400;2023-05-15T08:52:42;100615.16;;;17.92;46.57
51313;BME280;37397;53.226;10.400;2023-05-15T08:55:09;100625.09;;;17.96;46.57
51313;BME280;37397;53.226;10.400;2023-05-15T08:57:37;100634.56;;;17.97;46.48
51313;BME280;37397;53.226;10.400;2023-05-15T09:00:05;100620.59;;;18.01;46.48
51313;BME280;37397;53.226;10.400;2023-05-15T09:02:35;100617.72;;;18.01;46.48
51313;BME280;37397;53.226;10.400;2023-05-15T09:05:03;100613.44;;;18.08;46.51
51313;BME280;37397;53.226;10.400;2023-05-15T09:07:31;100609.25;;;18.09;46.50
51313;BME280;37397;53.226;10.400;2023-05-15T09:09:58;100605.81;;;18.10;46.40
51313;BME280;37397;53.226;10.400;2023-05-15T09:12:26;100607.09;;;18.15;46.43
51313;BME280;37397;53.226;10.400;2023-05-15T09:17:39;100600.22;;;18.18;46.29
51313;BME280;37397;53.226;10.400;2023-05-15T09:20:34;100601.50;;;18.22;46.06
51313;BME280;37397;53.226;10.400;2023-05-15T09:23:03;100597.75;;;18.28;46.56
51313;BME280;37397;53.226;10.400;2023-05-15T09:25:40;100593.53;;;18.29;46.27
51313;BME280;37397;53.226;10.400;2023-05-15T09:28:19;100596.69;;;18.31;45.90
51313;BME280;37397;53.226;10.400;2023-05-15T09:30:56;100597.94;;;18.35;45.42
51313;BME280;37397;53.226;10.400;2023-05-15T09:33:31;100596.84;;;18.38;45.70
51313;BME280;37397;53.226;10.400;2023-05-15T09:35:57;100595.53;;;18.39;45.51
51313;BME280;37397;53.226;10.400;2023-05-15T09:38:24;100591.78;;;18.45;45.38
51313;BME280;37397;53.226;10.400;2023-05-15T09:41:00;100592.03;;;18.47;44.81
51313;BME280;37397;53.226;10.400;2023-05-15T09:43:28;100584.59;;;18.51;45.31
51313;BME280;37397;53.226;10.400;2023-05-15T09:45:55;100584.06;;;18.53;44.99
51313;BME280;37397;53.226;10.400;2023-05-15T09:48:21;100586.66;;;18.56;45.09
51313;BME280;37397;53.226;10.400;2023-05-15T09:50:48;100582.44;;;18.57;45.49
51313;BME280;37397;53.226;10.400;2023-05-15T09:53:15;100579.53;;;18.57;45.60
51313;BME280;37397;53.226;10.400;2023-05-15T09:55:47;100589.25;;;18.60;44.83
51313;BME280;37397;53.226;10.400;2023-05-15T09:58:16;100584.72;;;18.65;44.29
51313;BME280;37397;53.226;10.400;2023-05-15T10:00:44;100582.84;;;18.67;44.13
51313;BME280;37397;53.226;10.400;2023-05-15T10:03:14;100576.75;;;18.71;44.42
51313;BME280;37397;53.226;10.400;2023-05-15T10:05:41;100578.31;;;18.72;44.66
51313;BME280;37397;53.226;10.400;2023-05-15T10:08:10;100578.31;;;18.72;44.73
51313;BME280;37397;53.226;10.400;2023-05-15T10:10:37;100562.53;;;18.73;44.69
51313;BME280;37397;53.226;10.400;2023-05-15T10:13:06;100567.22;;;18.76;44.66
51313;BME280;37397;53.226;10.400;2023-05-15T10:15:33;100560.91;;;18.77;44.49
51313;BME280;37397;53.226;10.400;2023-05-15T10:18:03;100558.56;;;18.76;43.95
51313;BME280;37397;53.226;10.400;2023-05-15T10:20:31;100553.78;;;18.78;43.89
51313;BME280;37397;53.226;10.400;2023-05-15T10:22:59;100557.16;;;18.83;44.02
51313;BME280;37397;53.226;10.400;2023-05-15T10:25:49;100567.09;;;18.87;43.27
51313;BME280;37397;53.226;10.400;2023-05-15T10:28:17;100561.78;;;18.91;42.95
51313;BME280;37397;53.226;10.400;2023-05-15T10:30:45;100563.56;;;18.94;43.10
51313;BME280;37397;53.226;10.400;2023-05-15T10:33:13;100559.03;;;18.99;43.33
51313;BME280;37397;53.226;10.400;2023-05-15T10:35:41;100563.72;;;19.02;43.31
51313;BME280;37397;53.226;10.400;2023-05-15T10:38:09;100553.19;;;19.05;43.03
51313;BME280;37397;53.226;10.400;2023-05-15T10:40:37;100550.97;;;19.11;42.68
51313;BME280;37397;53.226;10.400;2023-05-15T10:43:08;100545.19;;;19.11;42.40
51313;BME280;37397;53.226;10.400;2023-05-15T10:45:35;100559.03;;;19.18;42.43
51313;BME280;37397;53.226;10.400;2023-05-15T10:48:03;100551.94;;;19.19;42.45
51313;BME280;37397;53.226;10.400;2023-05-15T10:50:31;100546.03;;;19.25;42.33
51313;BME280;37397;53.226;10.400;2023-05-15T10:52:58;100545.16;;;19.30;43.25
51313;BME280;37397;53.226;10.400;2023-05-15T10:55:25;100545.25;;;19.24;42.99
51313;BME280;37397;53.226;10.400;2023-05-15T10:57:51;100544.88;;;19.34;41.89
51313;BME280;37397;53.226;10.400;2023-05-15T11:02:49;100544.22;;;19.41;42.54
51313;BME280;37397;53.226;10.400;2023-05-15T11:05:19;100535.19;;;19.44;42.33
51313;BME280;37397;53.226;10.400;2023-05-15T11:10:41;100529.31;;;19.50;42.54
51313;BME280;37397;53.226;10.400;2023-05-15T11:13:07;100525.88;;;19.52;42.70
51313;BME280;37397;53.226;10.400;2023-05-15T11:15:44;100519.53;;;19.53;42.79
51313;BME280;37397;53.226;10.400;2023-05-15T11:18:11;100513.97;;;19.55;42.71
51313;BME280;37397;53.226;10.400;2023-05-15T11:23:27;100514.88;;;19.63;40.83
51313;BME280;37397;53.226;10.400;2023-05-15T11:25:57;100516.88;;;19.68;40.83
51313;BME280;37397;53.226;10.400;2023-05-15T11:28:24;100530.25;;;19.72;40.55
51313;BME280;37397;53.226;10.400;2023-05-15T11:31:06;100493.13;;;19.76;39.83
51313;BME280;37397;53.226;10.400;2023-05-15T11:33:33;100511.38;;;19.84;40.91
51313;BME280;37397;53.226;10.400;2023-05-15T11:36:00;100501.59;;;19.87;41.15
51313;BME280;37397;53.226;10.400;2023-05-15T11:38:26;100501.81;;;19.89;41.05
51313;BME280;37397;53.226;10.400;2023-05-15T11:40:59;100503.38;;;19.90;41.29
51313;BME280;37397;53.226;10.400;2023-05-15T11:43:36;100507.38;;;20.00;41.52
51313;BME280;37397;53.226;10.400;2023-05-15T11:46:03;100498.13;;;20.02;41.86
51313;BME280;37397;53.226;10.400;2023-05-15T11:48:45;100498.91;;;20.02;41.09
51313;BME280;37397;53.226;10.400;2023-05-15T11:51:17;100498.81;;;20.08;41.32
51313;BME280;37397;53.226;10.400;2023-05-15T11:53:45;100492.44;;;20.10;41.14
51313;BME280;37397;53.226;10.400;2023-05-15T11:56:24;100493.69;;;20.14;41.31
51313;BME280;37397;53.226;10.400;2023-05-15T11:58:55;100492.31;;;20.15;41.50
51313;BME280;37397;53.226;10.400;2023-05-15T12:01:22;100480.19;;;20.17;41.61
51313;BME280;37397;53.226;10.400;2023-05-15T12:03:49;100487.00;;;20.19;41.69
51313;BME280;37397;53.226;10.400;2023-05-15T12:06:17;100487.19;;;20.21;41.52
51313;BME280;37397;53.226;10.400;2023-05-15T12:08:49;100485.31;;;20.24;41.95
51313;BME280;37397;53.226;10.400;2023-05-15T12:11:20;100482.97;;;20.22;41.43
51313;BME280;37397;53.226;10.400;2023-05-15T12:13:50;100479.94;;;20.28;41.50
51313;BME280;37397;53.226;10.400;2023-05-15T12:16:22;100479.94;;;20.28;41.30
51313;BME280;37397;53.226;10.400;2023-05-15T12:18:50;100484.19;;;20.27;41.59
51313;BME280;37397;53.226;10.400;2023-05-15T12:21:16;100483.09;;;20.30;41.65
51313;BME280;37397;53.226;10.400;2023-05-15T12:23:50;100493.31;;;20.31;41.51
51313;BME280;37397;53.226;10.400;2023-05-15T12:26:32;100484.63;;;20.31;41.48
51313;BME280;37397;53.226;10.400;2023-05-15T12:28:59;100473.03;;;20.31;41.70
51313;BME280;37397;53.226;10.400;2023-05-15T12:31:25;100493.53;;;20.33;41.70
51313;BME280;37397;53.226;10.400;2023-05-15T12:33:52;100487.53;;;20.31;41.66
51313;BME280;37397;53.226;10.400;2023-05-15T12:36:19;100479.63;;;20.32;41.88
51313;BME280;37397;53.226;10.400;2023-05-15T12:38:46;100481.94;;;20.33;41.78
51313;BME280;37397;53.226;10.400;2023-05-15T12:41:13;100476.94;;;20.34;42.03
51313;BME280;37397;53.226;10.400;2023-05-15T12:43:40;100472.69;;;20.35;42.13
51313;BME280;37397;53.226;10.400;2023-05-15T12:46:06;100485.09;;;20.35;42.31
51313;BME280;37397;53.226;10.400;2023-05-15T12:48:34;100479.50;;;20.37;41.69
51313;BME280;37397;53.226;10.400;2023-05-15T12:51:05;100476.59;;;20.37;42.03
51313;BME280;37397;53.226;10.400;2023-05-15T12:53:33;100468.13;;;20.39;41.98
51313;BME280;37397;53.226;10.400;2023-05-15T12:55:59;100478.16;;;20.38;41.96
51313;BME280;37397;53.226;10.400;2023-05-15T12:58:26;100471.00;;;20.39;41.54
51313;BME280;37397;53.226;10.400;2023-05-15T13:00:53;100479.72;;;20.39;41.07
51313;BME280;37397;53.226;10.400;2023-05-15T13:03:20;100467.00;;;20.43;41.24
51313;BME280;37397;53.226;10.400;2023-05-15T13:05:47;100465.47;;;20.42;41.16
51313;BME280;37397;53.226;10.400;2023-05-15T13:08:15;100473.00;;;20.45;41.10
51313;BME280;37397;53.226;10.400;2023-05-15T13:10:43;100471.66;;;20.46;40.87
51313;BME280;37397;53.226;10.400;2023-05-15T13:13:10;100470.09;;;20.45;40.99